Clough, South Dakota
Current Conditions -  °F | °C
As of 10:58 AM on Saturday 20 Dec 2014 (Local Time) from KRCA Reporting Station
Broken Clouds Broken Clouds  
Wind Chill: 42°   Ceiling: 11000
Heat Index: 47°   Visibility: 10mi
Dew Point: 28°   Wind: 12mph
Humidity: 46%   Direction: 10°N
Pressure: 29.91"   Gusts: NA
Location:  44.4145°N, 103.17°W
Report Text: KRCA 201758Z AUTO 01010KT 10SM SCT090 BKN110 09/M02 A2991 RMK AO2 SLP155 T00861025 10086 21006 50004 $
Loading
Personal Weather Stations






























Interactive Weather Map New forecast layout! Learn more

10-Day Weather Forecast

Advertisements
Track Severe Weather on mobile